Time;durP1;ratioP1;P1;durP2;ratioP2;P2;SDS_P1;SDS_P2;PMS_P1;PMS_P2;Temp;Humidity;BMP_temperature;BMP_pressure;BME280_temperature;BME280_humidity;BME280_pressure;Samples;Min_cycle;Max_cycle;Signal;HPM_P1;HPM_P2
2024/01/06 00:01:39;;;;;;;15.48;12.00;;;;;;;;;;4988820;28;20057;-76
2024/01/06 00:04:05;;;;;;;17.98;11.93;;;;;;;;;;4989398;28;20411;-76
2024/01/06 00:06:31;;;;;;;16.40;11.85;;;;;;;;;;4992447;28;20058;-77
2024/01/06 00:08:57;;;;;;;21.95;11.45;;;;;;;;;;4976132;28;20454;-76
2024/01/06 00:11:23;;;;;;;17.45;10.68;;;;;;;;;;4990080;28;20046;-76
2024/01/06 00:13:49;;;;;;;17.02;11.40;;;;;;;;;;4987827;28;20050;-76
2024/01/06 00:16:19;;;;;;;18.23;11.38;;;;;;;;;;4988022;28;20057;-76
2024/01/06 00:18:45;;;;;;;18.55;11.50;;;;;;;;;;4985980;28;20049;-76
2024/01/06 00:21:11;;;;;;;19.63;12.73;;;;;;;;;;4985003;28;20046;-76
2024/01/06 00:23:37;;;;;;;19.73;11.77;;;;;;;;;;4995735;28;20049;-76
2024/01/06 00:26:04;;;;;;;20.08;11.25;;;;;;;;;;4991201;28;20039;-76
2024/01/06 00:28:30;;;;;;;19.83;12.00;;;;;;;;;;5003960;28;20045;-76
2024/01/06 00:30:56;;;;;;;23.52;12.20;;;;;;;;;;5002330;28;20054;-76
2024/01/06 00:33:22;;;;;;;18.95;11.43;;;;;;;;;;4998455;28;20047;-76
2024/01/06 00:35:48;;;;;;;18.25;12.05;;;;;;;;;;4981106;28;20049;-76
2024/01/06 00:38:14;;;;;;;24.50;12.23;;;;;;;;;;4988381;28;20119;-76
2024/01/06 00:40:40;;;;;;;18.55;11.98;;;;;;;;;;4982286;28;20042;-76
2024/01/06 00:43:06;;;;;;;20.00;11.90;;;;;;;;;;4982905;28;20054;-76
2024/01/06 00:45:32;;;;;;;19.30;12.20;;;;;;;;;;5015700;28;20987;-76
2024/01/06 00:47:58;;;;;;;21.60;12.60;;;;;;;;;;4985379;28;20057;-76
2024/01/06 00:50:24;;;;;;;17.17;12.18;;;;;;;;;;4992585;28;20057;-76
2024/01/06 00:52:53;;;;;;;21.45;12.50;;;;;;;;;;4985577;28;20042;-76
2024/01/06 00:55:20;;;;;;;21.45;12.88;;;;;;;;;;4982217;28;20050;-76
2024/01/06 00:57:46;;;;;;;20.95;12.65;;;;;;;;;;4982806;28;20042;-76
2024/01/06 01:00:12;;;;;;;22.98;13.07;;;;;;;;;;4983258;28;20398;-76
2024/01/06 01:02:38;;;;;;;20.00;12.48;;;;;;;;;;5014705;28;20050;-76
2024/01/06 01:05:05;;;;;;;18.95;11.98;;;;;;;;;;4982832;28;20055;-76
2024/01/06 01:07:31;;;;;;;18.42;11.95;;;;;;;;;;4986298;28;20073;-76
2024/01/06 01:09:57;;;;;;;18.52;11.77;;;;;;;;;;5017829;28;20042;-76
2024/01/06 01:12:24;;;;;;;19.88;13.20;;;;;;;;;;4987362;28;20509;-76
2024/01/06 01:14:50;;;;;;;19.50;12.18;;;;;;;;;;4987708;28;20434;-76
2024/01/06 01:17:16;;;;;;;19.35;12.52;;;;;;;;;;4982186;28;20043;-76
2024/01/06 01:19:42;;;;;;;17.77;11.73;;;;;;;;;;4984152;28;20049;-76
2024/01/06 01:22:09;;;;;;;17.58;12.55;;;;;;;;;;4983038;28;20264;-75
2024/01/06 01:24:35;;;;;;;21.92;13.45;;;;;;;;;;4989041;28;20156;-76
2024/01/06 01:27:01;;;;;;;20.77;13.30;;;;;;;;;;4988432;28;20078;-76
2024/01/06 01:29:27;;;;;;;22.60;13.70;;;;;;;;;;4984670;28;20456;-76
2024/01/06 01:31:52;;;;;;;21.98;12.98;;;;;;;;;;4992019;28;20141;-75
2024/01/06 01:34:19;;;;;;;21.55;13.50;;;;;;;;;;5018956;28;20046;-76
2024/01/06 01:36:45;;;;;;;17.92;13.02;;;;;;;;;;4998201;28;20045;-76
2024/01/06 01:39:11;;;;;;;19.00;13.77;;;;;;;;;;4985626;28;20042;-76
2024/01/06 01:41:37;;;;;;;16.83;12.52;;;;;;;;;;4999637;28;20125;-76
2024/01/06 01:44:03;;;;;;;18.88;12.90;;;;;;;;;;5010515;28;20047;-76
2024/01/06 01:46:30;;;;;;;18.05;13.32;;;;;;;;;;4976120;28;20047;-76
2024/01/06 01:48:56;;;;;;;17.48;12.60;;;;;;;;;;4975765;28;20131;-76
2024/01/06 01:51:23;;;;;;;23.98;13.60;;;;;;;;;;4982771;28;20074;-76
2024/01/06 01:53:49;;;;;;;17.38;12.52;;;;;;;;;;4982761;28;20108;-76
2024/01/06 01:56:16;;;;;;;21.48;12.10;;;;;;;;;;5017536;28;20042;-76
2024/01/06 01:58:42;;;;;;;19.80;12.25;;;;;;;;;;4983308;28;20046;-76
2024/01/06 02:01:09;;;;;;;16.58;12.38;;;;;;;;;;4983073;28;20401;-76
2024/01/06 02:03:35;;;;;;;20.40;11.85;;;;;;;;;;4984266;28;20043;-76
2024/01/06 02:06:01;;;;;;;21.10;13.20;;;;;;;;;;4979553;28;20055;-76
2024/01/06 02:08:27;;;;;;;19.90;12.48;;;;;;;;;;4989897;28;20046;-76
2024/01/06 02:10:56;;;;;;;17.55;10.98;;;;;;;;;;4986019;28;20094;-76
2024/01/06 02:13:22;;;;;;;14.90;10.50;;;;;;;;;;4991920;28;20443;-75
2024/01/06 02:15:48;;;;;;;18.42;10.52;;;;;;;;;;4990875;28;20053;-76
2024/01/06 02:18:14;;;;;;;13.93;9.43;;;;;;;;;;4994120;28;20125;-76
2024/01/06 02:20:43;;;;;;;17.63;10.70;;;;;;;;;;5030701;28;20129;-76
2024/01/06 02:23:09;;;;;;;14.43;9.63;;;;;;;;;;4998715;28;20046;-76
2024/01/06 02:25:35;;;;;;;21.83;9.60;;;;;;;;;;4988545;28;20045;-76
2024/01/06 02:28:01;;;;;;;16.33;10.05;;;;;;;;;;4995933;28;20550;-76
2024/01/06 02:30:27;;;;;;;14.93;8.18;;;;;;;;;;4991748;28;20046;-76
2024/01/06 02:32:53;;;;;;;12.93;7.93;;;;;;;;;;4996815;28;20109;-76
2024/01/06 02:35:20;;;;;;;13.40;9.25;;;;;;;;;;4989264;28;20506;-76
2024/01/06 02:37:46;;;;;;;15.45;8.02;;;;;;;;;;4995298;28;20482;-76
2024/01/06 02:40:12;;;;;;;14.52;8.20;;;;;;;;;;4992788;28;20053;-76
2024/01/06 02:42:38;;;;;;;13.52;8.18;;;;;;;;;;5023852;28;20075;-76
2024/01/06 02:45:05;;;;;;;16.05;8.23;;;;;;;;;;4993591;28;20434;-76
2024/01/06 02:47:30;;;;;;;11.30;7.85;;;;;;;;;;4991756;28;20085;-76
2024/01/06 02:49:56;;;;;;;10.48;8.25;;;;;;;;;;4984613;28;20049;-76
2024/01/06 02:52:22;;;;;;;9.80;6.63;;;;;;;;;;4995720;28;20054;-76
2024/01/06 02:54:48;;;;;;;11.27;7.72;;;;;;;;;;4996709;28;20896;-76
2024/01/06 02:57:15;;;;;;;11.77;7.25;;;;;;;;;;4987636;28;20693;-76
2024/01/06 02:59:41;;;;;;;11.38;7.10;;;;;;;;;;4988458;28;20042;-76
2024/01/06 03:02:07;;;;;;;13.30;7.35;;;;;;;;;;4983909;28;20384;-76
2024/01/06 03:04:33;;;;;;;10.18;7.18;;;;;;;;;;4983717;28;20406;-76
2024/01/06 03:06:59;;;;;;;10.55;7.60;;;;;;;;;;4984014;28;20167;-76
2024/01/06 03:09:25;;;;;;;7.63;6.38;;;;;;;;;;4987465;28;20053;-76
2024/01/06 03:11:51;;;;;;;11.05;6.90;;;;;;;;;;4988973;28;20494;-76
2024/01/06 03:14:17;;;;;;;10.25;7.70;;;;;;;;;;4987017;28;20042;-76
2024/01/06 03:16:43;;;;;;;9.65;6.93;;;;;;;;;;4982209;28;20073;-76
2024/01/06 03:19:09;;;;;;;13.27;8.45;;;;;;;;;;4985096;28;20085;-76
2024/01/06 03:21:35;;;;;;;11.27;8.48;;;;;;;;;;4984819;28;20489;-76
2024/01/06 03:24:01;;;;;;;13.68;9.23;;;;;;;;;;4989076;28;20053;-76
2024/01/06 03:26:27;;;;;;;11.43;8.20;;;;;;;;;;4991280;28;20100;-76
2024/01/06 03:28:54;;;;;;;9.50;7.43;;;;;;;;;;5018826;28;20117;-76
2024/01/06 03:31:22;;;;;;;13.35;9.13;;;;;;;;;;4985530;28;20178;-76
2024/01/06 03:33:48;;;;;;;11.57;9.10;;;;;;;;;;4991880;28;20046;-76
2024/01/06 03:36:16;;;;;;;13.13;8.20;;;;;;;;;;4986552;28;20512;-76
2024/01/06 03:38:42;;;;;;;12.80;8.70;;;;;;;;;;4989023;28;20038;-76
2024/01/06 03:41:08;;;;;;;14.30;8.95;;;;;;;;;;4993989;28;20046;-75
2024/01/06 03:43:34;;;;;;;11.80;8.77;;;;;;;;;;4989791;28;20105;-76
2024/01/06 03:46:00;;;;;;;16.58;8.95;;;;;;;;;;4983467;28;20518;-76
2024/01/06 03:48:26;;;;;;;13.20;8.95;;;;;;;;;;4982754;28;20372;-76
2024/01/06 03:50:52;;;;;;;13.70;8.98;;;;;;;;;;4985048;28;20132;-76
2024/01/06 03:53:18;;;;;;;14.82;9.70;;;;;;;;;;4982717;28;20471;-76
2024/01/06 03:55:44;;;;;;;13.00;9.25;;;;;;;;;;4980741;28;20042;-76
2024/01/06 03:58:10;;;;;;;12.52;9.05;;;;;;;;;;4987285;28;20123;-76
2024/01/06 04:00:36;;;;;;;10.80;9.00;;;;;;;;;;4981945;28;20050;-76
2024/01/06 04:03:02;;;;;;;15.27;9.52;;;;;;;;;;5017981;28;20076;-75
2024/01/06 04:05:28;;;;;;;13.02;9.73;;;;;;;;;;4983232;28;20483;-76
2024/01/06 04:07:54;;;;;;;13.82;8.57;;;;;;;;;;4992145;28;20113;-76
2024/01/06 04:10:20;;;;;;;10.05;7.57;;;;;;;;;;4985783;28;20137;-76
2024/01/06 04:12:46;;;;;;;12.63;7.50;;;;;;;;;;4989949;28;20038;-76
2024/01/06 04:15:12;;;;;;;9.80;7.38;;;;;;;;;;4993258;28;20499;-76
2024/01/06 04:17:38;;;;;;;11.32;7.57;;;;;;;;;;4993333;28;20406;-76
2024/01/06 04:20:05;;;;;;;15.88;8.80;;;;;;;;;;4991804;28;20057;-76
2024/01/06 04:22:31;;;;;;;12.38;8.52;;;;;;;;;;4987869;28;20550;-76
2024/01/06 04:24:57;;;;;;;13.38;9.52;;;;;;;;;;4990315;28;20057;-76
2024/01/06 04:27:23;;;;;;;14.98;9.95;;;;;;;;;;4986063;28;20112;-76
2024/01/06 04:29:52;;;;;;;15.48;9.77;;;;;;;;;;4988107;28;20569;-76
2024/01/06 04:32:19;;;;;;;12.32;9.30;;;;;;;;;;4990606;28;20053;-76
2024/01/06 04:34:45;;;;;;;18.38;9.95;;;;;;;;;;4982404;28;20490;-76
2024/01/06 04:37:11;;;;;;;13.85;8.90;;;;;;;;;;4985013;28;20076;-76
2024/01/06 04:39:37;;;;;;;12.98;9.60;;;;;;;;;;5005500;28;20054;-76
2024/01/06 04:42:03;;;;;;;17.58;9.18;;;;;;;;;;4993478;28;20037;-76
2024/01/06 04:44:29;;;;;;;13.30;9.70;;;;;;;;;;5010718;28;20060;-76
2024/01/06 04:46:55;;;;;;;13.23;8.50;;;;;;;;;;5008437;28;20049;-76
2024/01/06 04:49:21;;;;;;;12.02;7.35;;;;;;;;;;4996312;28;20105;-76
2024/01/06 04:51:48;;;;;;;15.50;6.85;;;;;;;;;;4993732;28;20057;-76
2024/01/06 04:54:14;;;;;;;10.40;6.45;;;;;;;;;;4997222;28;20053;-76
2024/01/06 04:56:40;;;;;;;13.93;7.35;;;;;;;;;;4981352;28;20042;-76
2024/01/06 04:59:06;;;;;;;14.13;7.80;;;;;;;;;;4992425;28;20506;-76
2024/01/06 05:01:33;;;;;;;14.13;8.07;;;;;;;;;;4985814;28;20047;-76
2024/01/06 05:03:59;;;;;;;10.52;7.53;;;;;;;;;;4988546;28;20055;-75
2024/01/06 05:06:25;;;;;;;15.35;7.38;;;;;;;;;;4989428;28;20064;-76
2024/01/06 05:08:51;;;;;;;11.88;7.57;;;;;;;;;;4997997;28;20050;-76
2024/01/06 05:11:17;;;;;;;11.45;7.40;;;;;;;;;;4986101;28;20050;-76
2024/01/06 05:13:43;;;;;;;12.27;7.28;;;;;;;;;;4985175;28;20042;-76
2024/01/06 05:16:09;;;;;;;14.57;7.00;;;;;;;;;;4987058;28;20667;-76
2024/01/06 05:18:35;;;;;;;13.02;7.38;;;;;;;;;;4982156;28;20077;-76
2024/01/06 05:21:02;;;;;;;12.07;6.72;;;;;;;;;;4983958;28;20057;-76
2024/01/06 05:23:28;;;;;;;14.43;8.00;;;;;;;;;;4982072;28;20490;-76
2024/01/06 05:25:54;;;;;;;10.27;7.28;;;;;;;;;;4992478;28;20042;-76
2024/01/06 05:28:20;;;;;;;12.45;6.88;;;;;;;;;;4982694;28;20045;-76
2024/01/06 05:30:46;;;;;;;10.57;7.07;;;;;;;;;;4989602;28;20045;-76
2024/01/06 05:33:13;;;;;;;12.75;7.03;;;;;;;;;;4981380;28;20483;-76
2024/01/06 05:35:39;;;;;;;8.90;6.97;;;;;;;;;;4984689;28;20323;-76
2024/01/06 05:38:05;;;;;;;12.77;6.65;;;;;;;;;;4985045;28;20054;-76
2024/01/06 05:40:31;;;;;;;12.25;6.57;;;;;;;;;;4984626;28;20049;-76
2024/01/06 05:42:57;;;;;;;11.30;7.10;;;;;;;;;;4979648;28;20046;-76
2024/01/06 05:45:23;;;;;;;12.45;6.50;;;;;;;;;;4983315;28;20049;-76
2024/01/06 05:47:49;;;;;;;11.13;6.65;;;;;;;;;;4992517;28;20117;-76
2024/01/06 05:50:16;;;;;;;12.32;7.10;;;;;;;;;;4988947;28;20145;-76
2024/01/06 05:52:42;;;;;;;15.43;7.70;;;;;;;;;;4994779;28;20877;-76
2024/01/06 05:55:09;;;;;;;12.27;8.02;;;;;;;;;;4989110;28;20046;-76
2024/01/06 05:57:35;;;;;;;13.52;8.23;;;;;;;;;;4990668;28;20129;-76
2024/01/06 06:00:01;;;;;;;11.85;7.40;;;;;;;;;;4988883;28;20046;-76
2024/01/06 06:02:27;;;;;;;12.25;7.78;;;;;;;;;;4984158;28;20138;-76
2024/01/06 06:04:53;;;;;;;15.90;8.55;;;;;;;;;;4989165;28;20054;-76
2024/01/06 06:07:20;;;;;;;12.18;7.07;;;;;;;;;;4985564;28;20453;-76
2024/01/06 06:09:47;;;;;;;8.73;6.75;;;;;;;;;;4994876;28;20046;-76
2024/01/06 06:12:13;;;;;;;14.63;7.03;;;;;;;;;;4992434;28;20074;-76
2024/01/06 06:14:39;;;;;;;11.68;6.85;;;;;;;;;;4992037;28;20145;-76
2024/01/06 06:17:06;;;;;;;13.30;7.78;;;;;;;;;;4989209;28;20078;-76
2024/01/06 06:19:32;;;;;;;13.57;7.50;;;;;;;;;;4992700;28;20042;-76
2024/01/06 06:21:58;;;;;;;14.65;7.60;;;;;;;;;;4993458;28;20069;-76
2024/01/06 06:24:24;;;;;;;14.00;7.38;;;;;;;;;;4987786;28;20081;-76
2024/01/06 06:26:50;;;;;;;14.07;8.18;;;;;;;;;;4995951;28;20077;-76
2024/01/06 06:29:16;;;;;;;11.32;7.28;;;;;;;;;;4997741;28;20079;-76
2024/01/06 06:31:44;;;;;;;13.00;8.30;;;;;;;;;;4987283;28;20517;-76
2024/01/06 06:34:10;;;;;;;11.68;8.07;;;;;;;;;;4988902;28;20416;-76
2024/01/06 06:36:37;;;;;;;15.23;8.38;;;;;;;;;;4986930;28;20561;-76
2024/01/06 06:39:04;;;;;;;17.90;8.80;;;;;;;;;;4989463;28;20489;-76
2024/01/06 06:41:30;;;;;;;12.82;7.53;;;;;;;;;;5004625;28;20053;-76
2024/01/06 06:43:56;;;;;;;13.80;7.22;;;;;;;;;;4982880;28;20502;-76
2024/01/06 06:46:22;;;;;;;11.23;6.57;;;;;;;;;;4993068;28;20091;-76
2024/01/06 06:48:49;;;;;;;11.23;7.25;;;;;;;;;;4994706;28;20504;-76
2024/01/06 06:51:15;;;;;;;10.82;7.53;;;;;;;;;;4987957;28;20054;-76
2024/01/06 06:53:41;;;;;;;10.57;6.90;;;;;;;;;;4989288;28;20054;-76
2024/01/06 06:56:07;;;;;;;9.50;6.95;;;;;;;;;;5023462;28;20050;-76
2024/01/06 06:58:33;;;;;;;9.52;6.95;;;;;;;;;;4984225;28;20054;-76
2024/01/06 07:00:59;;;;;;;11.50;7.32;;;;;;;;;;4974895;28;20052;-76
2024/01/06 07:03:26;;;;;;;16.38;8.07;;;;;;;;;;4978759;28;20043;-76
2024/01/06 07:05:52;;;;;;;12.52;8.65;;;;;;;;;;5017299;28;20058;-76
2024/01/06 07:08:19;;;;;;;14.02;8.82;;;;;;;;;;5014246;28;20046;-76
2024/01/06 07:10:45;;;;;;;14.35;9.55;;;;;;;;;;4983857;28;20096;-76
2024/01/06 07:13:11;;;;;;;15.88;9.88;;;;;;;;;;4983660;28;20051;-76
2024/01/06 07:15:37;;;;;;;15.25;10.70;;;;;;;;;;4987438;28;20402;-76
2024/01/06 07:18:03;;;;;;;19.55;8.85;;;;;;;;;;4990134;28;20080;-76
2024/01/06 07:20:29;;;;;;;14.98;8.63;;;;;;;;;;4988830;28;20093;-76
2024/01/06 07:22:55;;;;;;;14.68;9.23;;;;;;;;;;4988564;28;20459;-76
2024/01/06 07:25:21;;;;;;;16.10;8.90;;;;;;;;;;4985902;28;20050;-76
2024/01/06 07:27:47;;;;;;;13.15;8.80;;;;;;;;;;4994570;28;20070;-76
2024/01/06 07:30:13;;;;;;;13.35;8.93;;;;;;;;;;4990164;28;20112;-76
2024/01/06 07:32:39;;;;;;;12.10;8.63;;;;;;;;;;4990169;28;20082;-76
2024/01/06 07:35:05;;;;;;;10.73;6.57;;;;;;;;;;4990654;28;20147;-76
2024/01/06 07:37:32;;;;;;;9.68;6.50;;;;;;;;;;4995257;28;20457;-76
2024/01/06 07:39:58;;;;;;;11.52;7.28;;;;;;;;;;4984903;28;20050;-76
2024/01/06 07:42:24;;;;;;;13.98;6.53;;;;;;;;;;4983787;28;20042;-76
2024/01/06 07:44:50;;;;;;;10.98;7.25;;;;;;;;;;4987659;28;20045;-76
2024/01/06 07:47:16;;;;;;;14.23;8.55;;;;;;;;;;4985163;28;20137;-76
2024/01/06 07:49:42;;;;;;;16.02;7.88;;;;;;;;;;4992781;28;20125;-76
2024/01/06 07:52:08;;;;;;;13.63;8.48;;;;;;;;;;4987691;28;20046;-76
2024/01/06 07:54:34;;;;;;;11.85;8.07;;;;;;;;;;5019336;28;20058;-76
2024/01/06 07:57:00;;;;;;;10.65;8.15;;;;;;;;;;4988099;28;20042;-76
2024/01/06 07:59:26;;;;;;;13.95;8.85;;;;;;;;;;4989495;28;20363;-76
2024/01/06 08:01:52;;;;;;;14.35;8.73;;;;;;;;;;4982581;28;20038;-76
2024/01/06 08:04:18;;;;;;;13.23;8.02;;;;;;;;;;4983749;28;20050;-77
2024/01/06 08:06:44;;;;;;;13.48;7.78;;;;;;;;;;4987637;28;20046;-76
2024/01/06 08:09:10;;;;;;;9.82;7.30;;;;;;;;;;4986166;28;20046;-76
2024/01/06 08:11:36;;;;;;;13.98;7.85;;;;;;;;;;4987195;28;20411;-76
2024/01/06 08:14:03;;;;;;;16.50;7.82;;;;;;;;;;4991492;28;20051;-76
2024/01/06 08:16:29;;;;;;;10.93;7.82;;;;;;;;;;4985952;28;20058;-76
2024/01/06 08:18:55;;;;;;;12.77;7.55;;;;;;;;;;4992265;28;20038;-76
2024/01/06 08:21:21;;;;;;;9.98;7.20;;;;;;;;;;4989111;28;20391;-76
2024/01/06 08:23:47;;;;;;;11.75;6.82;;;;;;;;;;4981866;28;20104;-76
2024/01/06 08:26:13;;;;;;;14.85;7.68;;;;;;;;;;4990981;28;20430;-76
2024/01/06 08:28:39;;;;;;;13.82;7.70;;;;;;;;;;4989901;28;20055;-76
2024/01/06 08:31:05;;;;;;;10.15;7.30;;;;;;;;;;4984172;28;20403;-76
2024/01/06 08:33:31;;;;;;;11.02;7.20;;;;;;;;;;4983394;28;20112;-76
2024/01/06 08:35:57;;;;;;;11.98;7.53;;;;;;;;;;4991988;28;20092;-76
2024/01/06 08:38:23;;;;;;;11.57;7.13;;;;;;;;;;4990325;28;20078;-76
2024/01/06 08:40:50;;;;;;;11.98;7.10;;;;;;;;;;4986974;28;20058;-76
2024/01/06 08:43:16;;;;;;;10.55;7.20;;;;;;;;;;4985975;28;20066;-76
2024/01/06 08:45:42;;;;;;;12.32;7.50;;;;;;;;;;5023334;28;20057;-76
2024/01/06 08:48:08;;;;;;;10.45;7.20;;;;;;;;;;5021758;28;20140;-76
2024/01/06 08:50:34;;;;;;;11.65;6.65;;;;;;;;;;4991030;28;20121;-76
2024/01/06 08:53:00;;;;;;;7.22;5.95;;;;;;;;;;5022558;28;20082;-76
2024/01/06 08:55:26;;;;;;;11.75;6.90;;;;;;;;;;4987252;28;20510;-76
2024/01/06 08:57:52;;;;;;;11.07;6.97;;;;;;;;;;4974986;28;20093;-76
2024/01/06 09:00:18;;;;;;;9.23;6.82;;;;;;;;;;4979089;28;20046;-76
2024/01/06 09:02:44;;;;;;;12.15;6.78;;;;;;;;;;5022994;28;20050;-76
2024/01/06 09:05:10;;;;;;;8.98;5.68;;;;;;;;;;5017047;28;20054;-76
2024/01/06 09:07:36;;;;;;;9.90;6.13;;;;;;;;;;4978536;28;20451;-76
2024/01/06 09:10:02;;;;;;;9.32;5.72;;;;;;;;;;4984607;28;20045;-76
2024/01/06 09:12:29;;;;;;;8.43;5.57;;;;;;;;;;4982150;28;20058;-76
2024/01/06 09:14:55;;;;;;;10.32;5.80;;;;;;;;;;4982838;28;20049;-76
2024/01/06 09:17:22;;;;;;;9.90;6.35;;;;;;;;;;5024501;28;20050;-76
2024/01/06 09:19:48;;;;;;;8.57;5.88;;;;;;;;;;4994861;28;20457;-76
2024/01/06 09:22:17;;;;;;;8.60;5.80;;;;;;;;;;4999308;28;20046;-76
2024/01/06 09:24:43;;;;;;;10.40;5.97;;;;;;;;;;5003236;28;20049;-76
2024/01/06 09:27:09;;;;;;;11.13;6.20;;;;;;;;;;4985448;28;20066;-76
2024/01/06 09:29:35;;;;;;;9.38;6.03;;;;;;;;;;4998807;28;20038;-76
2024/01/06 09:32:02;;;;;;;11.25;5.45;;;;;;;;;;4988818;28;20042;-76
2024/01/06 09:34:28;;;;;;;6.28;5.40;;;;;;;;;;4991521;28;20053;-76
2024/01/06 09:36:54;;;;;;;10.15;6.22;;;;;;;;;;5001396;28;20121;-76
2024/01/06 09:39:20;;;;;;;8.43;5.70;;;;;;;;;;4992905;28;20122;-76
2024/01/06 09:41:46;;;;;;;9.73;5.68;;;;;;;;;;5001452;28;20045;-76
2024/01/06 09:44:12;;;;;;;9.80;6.40;;;;;;;;;;4996301;28;20053;-76
2024/01/06 09:46:40;;;;;;;8.73;6.80;;;;;;;;;;5000079;28;20033;-76
2024/01/06 09:49:06;;;;;;;10.23;6.47;;;;;;;;;;5000523;28;20078;-76
2024/01/06 09:51:34;;;;;;;10.00;7.22;;;;;;;;;;4988767;28;20050;-77
2024/01/06 09:54:01;;;;;;;10.27;7.88;;;;;;;;;;4987729;28;20490;-76
2024/01/06 09:56:28;;;;;;;12.05;7.53;;;;;;;;;;4993495;28;20081;-76
2024/01/06 09:58:54;;;;;;;14.00;8.32;;;;;;;;;;4995244;28;20052;-76
2024/01/06 10:01:21;;;;;;;12.90;7.50;;;;;;;;;;4993322;28;20096;-76
2024/01/06 10:03:47;;;;;;;13.15;7.60;;;;;;;;;;4985785;28;20046;-75
2024/01/06 10:06:16;;;;;;;12.18;8.18;;;;;;;;;;4995937;28;20138;-75
2024/01/06 10:08:43;;;;;;;15.68;9.10;;;;;;;;;;4985422;28;20055;-76
2024/01/06 10:11:10;;;;;;;15.48;8.45;;;;;;;;;;4989045;28;20069;-76
2024/01/06 10:13:38;;;;;;;13.85;7.90;;;;;;;;;;4990933;28;20076;-76
2024/01/06 10:16:04;;;;;;;14.50;8.90;;;;;;;;;;4987478;28;20054;-76
2024/01/06 10:18:31;;;;;;;16.67;9.07;;;;;;;;;;4988781;28;20395;-76
2024/01/06 10:20:57;;;;;;;17.40;9.23;;;;;;;;;;4989168;28;20073;-76
2024/01/06 10:23:24;;;;;;;13.45;8.77;;;;;;;;;;4985518;28;20038;-76
2024/01/06 10:25:56;;;;;;;13.98;9.10;;;;;;;;;;5020152;28;20046;-76
2024/01/06 10:28:23;;;;;;;12.32;8.73;;;;;;;;;;4987737;28;20050;-76
2024/01/06 10:30:50;;;;;;;13.77;9.32;;;;;;;;;;4986422;28;20505;-77
2024/01/06 10:33:16;;;;;;;15.77;9.10;;;;;;;;;;4989164;28;20065;-76
2024/01/06 10:35:43;;;;;;;12.57;8.65;;;;;;;;;;4983507;28;20044;-76
2024/01/06 10:38:12;;;;;;;10.57;7.78;;;;;;;;;;4990287;28;20078;-76
2024/01/06 10:40:38;;;;;;;12.80;7.70;;;;;;;;;;4986862;28;20066;-76
2024/01/06 10:43:04;;;;;;;11.43;7.80;;;;;;;;;;4992093;28;20494;-76
2024/01/06 10:45:31;;;;;;;9.30;7.25;;;;;;;;;;4981810;28;20057;-76
2024/01/06 10:47:57;;;;;;;12.23;7.25;;;;;;;;;;4985936;28;20039;-76
2024/01/06 10:50:24;;;;;;;17.02;8.43;;;;;;;;;;4979159;28;20050;-76
2024/01/06 10:52:51;;;;;;;11.05;7.72;;;;;;;;;;4983941;28;20064;-76
2024/01/06 10:55:18;;;;;;;10.05;6.15;;;;;;;;;;4983399;28;20594;-77
2024/01/06 10:57:45;;;;;;;9.55;6.50;;;;;;;;;;4981054;28;20046;-77
2024/01/06 11:00:11;;;;;;;10.63;7.10;;;;;;;;;;5015223;28;20042;-77
2024/01/06 11:02:38;;;;;;;9.20;6.28;;;;;;;;;;4993929;28;20133;-78
2024/01/06 11:05:07;;;;;;;9.52;6.85;;;;;;;;;;4985642;28;20051;-78
2024/01/06 11:07:34;;;;;;;9.75;6.75;;;;;;;;;;4990476;28;20399;-78
2024/01/06 11:10:05;;;;;;;9.18;6.90;;;;;;;;;;4990427;28;20086;-78
2024/01/06 11:12:31;;;;;;;9.45;7.18;;;;;;;;;;4987377;28;20050;-78
2024/01/06 11:14:57;;;;;;;10.43;7.47;;;;;;;;;;4986627;28;20232;-78
2024/01/06 11:17:42;;;;;;;14.88;8.20;;;;;;;;;;4987930;28;20046;-77
2024/01/06 11:20:08;;;;;;;11.82;8.07;;;;;;;;;;4991403;28;20050;-79
2024/01/06 11:22:39;;;;;;;12.07;8.30;;;;;;;;;;4982296;28;20038;-78
2024/01/06 11:25:07;;;;;;;10.20;7.85;;;;;;;;;;5021729;28;20149;-78
2024/01/06 11:27:33;;;;;;;11.10;8.45;;;;;;;;;;4991441;28;20050;-78
2024/01/06 11:30:00;;;;;;;13.75;8.60;;;;;;;;;;4993540;28;20053;-79
2024/01/06 11:32:35;;;;;;;9.75;7.20;;;;;;;;;;4985944;28;20068;-78
2024/01/06 11:35:06;;;;;;;7.65;6.10;;;;;;;;;;4989270;28;20157;-78
2024/01/06 11:37:37;;;;;;;12.38;6.40;;;;;;;;;;5003246;28;20046;-78
2024/01/06 11:40:04;;;;;;;7.82;6.32;;;;;;;;;;4997334;28;20038;-77
2024/01/06 11:42:34;;;;;;;10.30;7.40;;;;;;;;;;4985012;28;20058;-79
2024/01/06 11:45:05;;;;;;;9.38;6.60;;;;;;;;;;4988720;28;20051;-74
2024/01/06 11:47:32;;;;;;;7.53;6.18;;;;;;;;;;4991524;28;20050;-78
2024/01/06 11:49:59;;;;;;;7.80;5.80;;;;;;;;;;4988539;28;20096;-77
2024/01/06 11:52:25;;;;;;;9.70;5.43;;;;;;;;;;4988207;28;20074;-77
2024/01/06 11:54:56;;;;;;;10.27;6.22;;;;;;;;;;4989215;28;20150;-77
2024/01/06 11:57:22;;;;;;;9.00;6.20;;;;;;;;;;4988389;28;20506;-77
2024/01/06 11:59:49;;;;;;;7.22;5.88;;;;;;;;;;4987416;28;20048;-77
2024/01/06 12:02:18;;;;;;;9.90;5.97;;;;;;;;;;4983133;28;20058;-78
2024/01/06 12:04:49;;;;;;;9.52;5.72;;;;;;;;;;5016852;28;20571;-78
2024/01/06 12:07:16;;;;;;;6.38;5.10;;;;;;;;;;4985694;28;20050;-77
2024/01/06 12:09:42;;;;;;;6.80;4.53;;;;;;;;;;5017120;28;20161;-77
2024/01/06 12:12:10;;;;;;;6.80;4.55;;;;;;;;;;4990324;28;20078;-77
2024/01/06 12:14:36;;;;;;;5.43;4.45;;;;;;;;;;5018676;28;20054;-77
2024/01/06 12:17:03;;;;;;;6.45;4.30;;;;;;;;;;4988579;28;20042;-77
2024/01/06 12:19:32;;;;;;;6.82;4.63;;;;;;;;;;4982623;28;20522;-78
2024/01/06 12:22:02;;;;;;;6.45;4.88;;;;;;;;;;4979665;28;20047;-78
2024/01/06 12:24:29;;;;;;;8.23;5.78;;;;;;;;;;4986993;28;21772;-77
2024/01/06 12:26:58;;;;;;;11.32;5.30;;;;;;;;;;4987272;28;20486;-77
2024/01/06 12:29:34;;;;;;;8.55;6.15;;;;;;;;;;4987782;28;20061;-77
2024/01/06 12:32:00;;;;;;;7.97;6.22;;;;;;;;;;4987243;28;20046;-78
2024/01/06 12:34:26;;;;;;;11.43;6.57;;;;;;;;;;4987563;28;21254;-77
2024/01/06 12:36:55;;;;;;;9.48;7.65;;;;;;;;;;4987349;28;20426;-78
2024/01/06 12:39:28;;;;;;;15.10;9.52;;;;;;;;;;4985428;28;20062;-77
2024/01/06 12:41:55;;;;;;;11.63;9.40;;;;;;;;;;4986146;28;20507;-78
2024/01/06 12:44:20;;;;;;;12.95;9.38;;;;;;;;;;4993925;28;20061;-78
2024/01/06 12:46:47;;;;;;;13.98;9.85;;;;;;;;;;4981620;28;20042;-76
2024/01/06 12:49:13;;;;;;;14.70;9.57;;;;;;;;;;4988295;28;20173;-76
2024/01/06 12:51:39;;;;;;;14.25;10.45;;;;;;;;;;5019051;28;20487;-76
2024/01/06 12:54:05;;;;;;;11.25;8.77;;;;;;;;;;5018784;28;20049;-76
2024/01/06 12:56:31;;;;;;;15.20;9.15;;;;;;;;;;4985460;28;20057;-76
2024/01/06 12:58:57;;;;;;;13.13;10.02;;;;;;;;;;4985916;28;20045;-76
2024/01/06 13:01:23;;;;;;;14.55;10.02;;;;;;;;;;4983688;28;20051;-76
2024/01/06 13:03:49;;;;;;;14.88;10.73;;;;;;;;;;4988774;28;20050;-76
2024/01/06 13:06:16;;;;;;;18.92;11.93;;;;;;;;;;4982833;28;20185;-77
2024/01/06 13:08:43;;;;;;;14.73;10.48;;;;;;;;;;4985539;28;20101;-76
2024/01/06 13:11:09;;;;;;;20.23;11.57;;;;;;;;;;4982491;28;20046;-76
2024/01/06 13:13:35;;;;;;;14.88;10.75;;;;;;;;;;4983309;28;20784;-76
2024/01/06 13:16:03;;;;;;;14.02;10.82;;;;;;;;;;4983907;28;20105;-76
2024/01/06 13:18:29;;;;;;;13.00;10.13;;;;;;;;;;4986168;28;20050;-76
2024/01/06 13:20:55;;;;;;;15.77;10.25;;;;;;;;;;4984973;28;20042;-75
2024/01/06 13:23:21;;;;;;;16.10;10.05;;;;;;;;;;4988147;28;20096;-76
2024/01/06 13:25:47;;;;;;;17.50;10.25;;;;;;;;;;4984125;28;20642;-76
2024/01/06 13:28:14;;;;;;;15.60;9.75;;;;;;;;;;5017417;28;20379;-76
2024/01/06 13:30:41;;;;;;;16.60;10.85;;;;;;;;;;5019784;28;20469;-76
2024/01/06 13:33:07;;;;;;;13.32;10.52;;;;;;;;;;4984889;28;20054;-76
2024/01/06 13:35:33;;;;;;;13.00;9.90;;;;;;;;;;5018520;28;20372;-76
2024/01/06 13:38:00;;;;;;;14.65;10.40;;;;;;;;;;4984409;28;20050;-76
2024/01/06 13:40:26;;;;;;;14.57;10.23;;;;;;;;;;4986070;28;20646;-76
2024/01/06 13:42:52;;;;;;;15.05;10.73;;;;;;;;;;4984121;28;20046;-76
2024/01/06 13:45:18;;;;;;;15.30;9.95;;;;;;;;;;4985737;28;20038;-76
2024/01/06 13:47:45;;;;;;;16.67;10.18;;;;;;;;;;4988343;28;20379;-76
2024/01/06 13:50:17;;;;;;;16.80;11.20;;;;;;;;;;4986478;28;20112;-76
2024/01/06 13:52:45;;;;;;;14.30;10.40;;;;;;;;;;4983835;28;20054;-77
2024/01/06 13:55:11;;;;;;;17.38;10.60;;;;;;;;;;4985866;28;20057;-76
2024/01/06 13:57:44;;;;;;;13.40;10.48;;;;;;;;;;4979802;28;20057;-76
2024/01/06 14:00:11;;;;;;;15.13;10.68;;;;;;;;;;4983402;28;20498;-76
2024/01/06 14:02:37;;;;;;;16.52;10.85;;;;;;;;;;4985227;28;20043;-76
2024/01/06 14:05:04;;;;;;;12.45;9.50;;;;;;;;;;4982205;28;20050;-76
2024/01/06 14:07:33;;;;;;;15.23;10.05;;;;;;;;;;4986279;28;20050;-76
2024/01/06 14:09:59;;;;;;;15.32;9.77;;;;;;;;;;4990286;28;20050;-76
2024/01/06 14:12:25;;;;;;;11.02;8.50;;;;;;;;;;4983352;28;20098;-76
2024/01/06 14:14:51;;;;;;;15.32;9.75;;;;;;;;;;4984212;28;20047;-76
2024/01/06 14:17:17;;;;;;;14.45;8.75;;;;;;;;;;4991350;28;20054;-76
2024/01/06 14:19:43;;;;;;;14.90;9.32;;;;;;;;;;4987611;28;20132;-77
2024/01/06 14:22:09;;;;;;;12.32;8.93;;;;;;;;;;4990662;28;20089;-77
2024/01/06 14:24:36;;;;;;;14.18;9.52;;;;;;;;;;4988998;28;20171;-76